createdAt,value
2019-05-17T00:01:27.738Z,10.79
2019-05-17T00:03:58.984Z,10.75
2019-05-17T00:06:30.179Z,10.80
2019-05-17T00:09:01.421Z,10.74
2019-05-17T00:11:36.626Z,10.73
2019-05-17T00:14:07.246Z,10.68
2019-05-17T00:16:38.488Z,10.64
2019-05-17T00:19:09.815Z,10.57
2019-05-17T00:21:41.090Z,10.56
2019-05-17T00:24:12.975Z,10.56
2019-05-17T00:26:46.633Z,10.41
2019-05-17T00:29:18.474Z,10.42
2019-05-17T00:31:49.799Z,10.43
2019-05-17T00:34:21.067Z,10.42
2019-05-17T00:36:52.551Z,10.48
2019-05-17T00:39:23.868Z,10.43
2019-05-17T00:41:57.159Z,10.42
2019-05-17T00:44:28.010Z,10.49
2019-05-17T00:47:00.745Z,10.47
2019-05-17T00:49:31.945Z,10.48
2019-05-17T00:52:04.501Z,10.46
2019-05-17T00:54:38.715Z,10.48
2019-05-17T00:57:10.225Z,10.47
2019-05-17T00:59:41.394Z,10.48
2019-05-17T01:02:12.760Z,10.56
2019-05-17T01:04:43.931Z,10.54
2019-05-17T01:07:17.658Z,10.59
2019-05-17T01:09:48.692Z,10.52
2019-05-17T01:12:20.134Z,10.54
2019-05-17T01:14:52.372Z,10.56
2019-05-17T01:17:27.160Z,10.48
2019-05-17T01:20:00.191Z,10.53
2019-05-17T01:22:31.399Z,10.67
2019-05-17T01:25:03.195Z,10.66
2019-05-17T01:27:34.505Z,10.67
2019-05-17T01:30:06.823Z,10.64
2019-05-17T01:32:38.171Z,10.70
2019-05-17T01:35:09.620Z,10.69
2019-05-17T01:37:40.816Z,10.81
2019-05-17T01:40:12.539Z,10.84
2019-05-17T01:42:43.755Z,10.83
2019-05-17T01:45:16.838Z,10.90
2019-05-17T01:47:48.123Z,10.98
2019-05-17T01:50:19.412Z,10.90
2019-05-17T01:52:51.028Z,10.95
2019-05-17T01:55:22.277Z,10.86
2019-05-17T01:57:53.614Z,10.93
2019-05-17T02:00:26.566Z,10.86
2019-05-17T02:02:58.087Z,10.87
2019-05-17T02:05:30.274Z,10.98
2019-05-17T02:08:02.489Z,10.86
2019-05-17T02:10:33.714Z,10.96
2019-05-17T02:13:06.611Z,10.98
2019-05-17T02:15:38.396Z,11.06
2019-05-17T02:18:09.674Z,11.09
2019-05-17T02:20:40.985Z,11.01
2019-05-17T02:23:12.155Z,11.12
2019-05-17T02:25:43.436Z,11.03
2019-05-17T02:28:14.765Z,11.01
2019-05-17T02:30:46.340Z,11.04
2019-05-17T02:33:18.918Z,11.08
2019-05-17T02:35:53.408Z,11.07
2019-05-17T02:38:23.700Z,11.00
2019-05-17T02:40:54.989Z,11.09
2019-05-17T02:43:26.360Z,11.12
2019-05-17T02:45:57.745Z,11.05
2019-05-17T02:48:29.419Z,11.12
2019-05-17T02:51:03.524Z,11.06
2019-05-17T02:53:35.336Z,11.01
2019-05-17T02:56:07.473Z,11.05
2019-05-17T02:58:38.826Z,11.08
2019-05-17T03:01:12.805Z,10.98
2019-05-17T03:03:44.287Z,10.91
2019-05-17T03:06:38.705Z,10.95
2019-05-17T03:09:12.475Z,10.96
2019-05-17T03:11:44.630Z,10.98
2019-05-17T03:14:15.861Z,11.01
2019-05-17T03:16:55.944Z,11.08
2019-05-17T03:19:27.733Z,11.09
2019-05-17T03:22:04.397Z,11.08
2019-05-17T03:24:53.293Z,11.14
2019-05-17T03:27:26.286Z,11.18
2019-05-17T03:29:57.580Z,11.17
2019-05-17T03:32:35.474Z,11.22
2019-05-17T03:35:06.940Z,11.22
2019-05-17T03:37:37.881Z,11.24
2019-05-17T03:40:24.903Z,11.31
2019-05-17T03:42:42.842Z,11.17
2019-05-17T03:45:14.605Z,11.20
2019-05-17T03:47:46.012Z,11.18
2019-05-17T03:50:17.280Z,11.24
2019-05-17T03:52:48.930Z,11.15
2019-05-17T03:55:23.522Z,11.12
2019-05-17T03:57:53.974Z,11.18
2019-05-17T04:00:25.170Z,11.14
2019-05-17T04:02:58.492Z,11.23
2019-05-17T04:05:33.393Z,11.24
2019-05-17T04:08:04.371Z,11.17
2019-05-17T04:10:35.759Z,11.21
2019-05-17T04:13:07.240Z,11.30
2019-05-17T04:15:38.450Z,11.22
2019-05-17T04:18:12.825Z,11.20
2019-05-17T04:20:43.565Z,11.28
2019-05-17T04:23:14.919Z,11.27
2019-05-17T04:25:46.390Z,11.25
2019-05-17T04:28:17.653Z,11.30
2019-05-17T04:30:52.532Z,11.33
2019-05-17T04:33:23.158Z,11.35
2019-05-17T04:35:55.176Z,11.37
2019-05-17T04:38:26.448Z,11.36
2019-05-17T04:40:57.787Z,11.35
2019-05-17T04:43:29.539Z,11.42
2019-05-17T04:46:02.972Z,11.30
2019-05-17T04:48:34.711Z,11.26
2019-05-17T04:51:05.993Z,11.31
2019-05-17T04:53:37.168Z,11.37
2019-05-17T04:56:08.657Z,11.36
2019-05-17T04:58:42.979Z,11.45
2019-05-17T05:01:14.402Z,11.41
2019-05-17T05:03:45.981Z,11.40
2019-05-17T05:06:17.432Z,11.40
2019-05-17T05:08:48.946Z,11.33
2019-05-17T05:11:23.281Z,11.26
2019-05-17T05:13:53.668Z,11.33
2019-05-17T05:16:25.319Z,11.37
2019-05-17T05:18:58.236Z,11.37
2019-05-17T05:21:32.384Z,11.26
2019-05-17T05:24:04.494Z,11.19
2019-05-17T05:26:35.862Z,11.26
2019-05-17T05:29:07.442Z,11.29
2019-05-17T05:31:39.391Z,11.32
2019-05-17T05:34:12.301Z,11.38
2019-05-17T05:36:44.267Z,11.35
2019-05-17T05:39:15.987Z,11.34
2019-05-17T05:41:48.836Z,11.31
2019-05-17T05:44:21.528Z,11.34
2019-05-17T05:46:52.999Z,11.32
2019-05-17T05:49:24.405Z,11.44
2019-05-17T05:51:58.233Z,11.41
2019-05-17T05:54:31.852Z,11.47
2019-05-17T05:57:03.466Z,11.48
2019-05-17T05:59:35.499Z,11.43
2019-05-17T06:02:08.184Z,11.54
2019-05-17T06:04:42.418Z,11.56
2019-05-17T06:07:13.849Z,11.59
2019-05-17T06:09:45.758Z,11.56
2019-05-17T06:12:23.735Z,11.63
2019-05-17T06:14:52.364Z,11.65
2019-05-17T06:17:24.249Z,11.63
2019-05-17T06:19:55.425Z,11.61
2019-05-17T06:22:26.804Z,11.68
2019-05-17T06:24:58.443Z,11.71
2019-05-17T06:27:32.091Z,11.66
2019-05-17T06:30:03.440Z,11.63
2019-05-17T06:32:37.859Z,11.72
2019-05-17T06:35:12.723Z,11.70
2019-05-17T06:37:46.872Z,11.70
2019-05-17T06:40:18.596Z,11.73
2019-05-17T06:42:52.371Z,11.73
2019-05-17T06:45:22.933Z,11.72
2019-05-17T06:47:54.136Z,11.83
2019-05-17T06:50:25.518Z,11.95
2019-05-17T06:52:56.734Z,11.97
2019-05-17T06:55:28.077Z,11.94
2019-05-17T06:58:01.525Z,11.85
2019-05-17T07:00:32.882Z,11.91
2019-05-17T07:03:04.214Z,12.01
2019-05-17T07:05:37.318Z,12.14
2019-05-17T07:08:10.790Z,12.13
2019-05-17T07:10:41.533Z,12.04
2019-05-17T07:13:12.797Z,12.00
2019-05-17T07:15:50.204Z,12.10
2019-05-17T07:18:20.264Z,12.15
2019-05-17T07:20:53.475Z,12.29
2019-05-17T07:23:25.404Z,12.31
2019-05-17T07:25:56.789Z,12.43
2019-05-17T07:28:30.279Z,12.35
2019-05-17T07:31:02.660Z,12.45
2019-05-17T07:33:34.640Z,12.39
2019-05-17T07:36:05.905Z,12.31
2019-05-17T07:38:39.675Z,12.35
2019-05-17T07:41:12.183Z,12.29
2019-05-17T07:43:43.775Z,12.29
2019-05-17T07:46:15.154Z,12.42
2019-05-17T07:48:46.491Z,12.44
2019-05-17T07:51:19.494Z,12.43
2019-05-17T07:53:51.712Z,12.24
2019-05-17T07:56:26.732Z,12.40
2019-05-17T07:59:00.044Z,12.61
2019-05-17T08:01:52.935Z,12.66
2019-05-17T08:04:24.378Z,12.75
2019-05-17T08:06:55.738Z,12.66
2019-05-17T08:09:26.899Z,12.75
2019-05-17T08:11:59.746Z,12.82
2019-05-17T08:14:36.322Z,12.90
2019-05-17T08:17:10.539Z,12.84
2019-05-17T08:19:41.994Z,12.85
2019-05-17T08:22:13.309Z,12.76
2019-05-17T08:24:44.833Z,12.60
2019-05-17T08:27:16.175Z,12.63
2019-05-17T08:29:50.563Z,12.67
2019-05-17T08:32:40.756Z,12.63
2019-05-17T08:35:12.149Z,12.57
2019-05-17T08:37:45.201Z,12.55
2019-05-17T08:40:20.015Z,12.63
2019-05-17T08:42:53.723Z,12.82
2019-05-17T08:45:29.597Z,12.89
2019-05-17T08:48:01.441Z,12.89
2019-05-17T08:50:33.426Z,13.02
2019-05-17T08:53:04.900Z,13.05
2019-05-17T08:55:36.369Z,12.96
2019-05-17T08:58:10.280Z,13.08
2019-05-17T09:00:41.111Z,13.18
2019-05-17T09:03:19.544Z,13.18
2019-05-17T09:05:52.562Z,13.15
2019-05-17T09:08:23.959Z,13.19
2019-05-17T09:10:56.021Z,13.20
2019-05-17T09:13:30.047Z,13.30
2019-05-17T09:16:02.018Z,13.32
2019-05-17T09:18:33.594Z,13.19
2019-05-17T09:21:09.764Z,13.25
2019-05-17T09:23:42.459Z,13.22
2019-05-17T09:26:13.884Z,13.32
2019-05-17T09:28:45.486Z,13.32
2019-05-17T09:31:21.602Z,13.40
2019-05-17T09:33:56.947Z,13.48
2019-05-17T09:36:30.288Z,13.40
2019-05-17T09:39:01.289Z,13.44
2019-05-17T09:41:36.452Z,13.38
2019-05-17T09:44:15.907Z,13.52
2019-05-17T09:46:43.480Z,13.54
2019-05-17T09:49:14.990Z,13.47
2019-05-17T09:51:46.733Z,13.47
2019-05-17T09:55:11.300Z,13.62
2019-05-17T09:57:44.593Z,13.65
2019-05-17T10:00:17.115Z,13.86
2019-05-17T10:02:50.842Z,13.98
2019-05-17T10:05:22.657Z,14.13
2019-05-17T10:07:54.348Z,14.39
2019-05-17T10:10:28.646Z,14.61
2019-05-17T10:13:00.621Z,14.53
2019-05-17T10:15:32.243Z,14.64
2019-05-17T10:18:05.815Z,14.39
2019-05-17T10:20:41.344Z,14.62
2019-05-17T10:23:14.660Z,14.93
2019-05-17T10:25:46.009Z,14.89
2019-05-17T10:28:17.485Z,14.71
2019-05-17T10:30:53.386Z,14.55
2019-05-17T10:33:26.449Z,14.26
2019-05-17T10:36:00.303Z,14.26
2019-05-17T10:38:32.195Z,14.32
2019-05-17T10:41:03.498Z,14.44
2019-05-17T10:43:34.969Z,14.57
2019-05-17T10:46:23.913Z,14.69
2019-05-17T10:48:55.420Z,14.64
2019-05-17T10:51:26.768Z,14.71
2019-05-17T10:54:00.118Z,14.66
2019-05-17T10:56:31.602Z,14.82
2019-05-17T10:59:03.029Z,14.82
2019-05-17T11:01:34.378Z,14.91
2019-05-17T11:04:06.341Z,14.86
2019-05-17T11:06:39.419Z,14.76
2019-05-17T11:09:20.223Z,14.81
2019-05-17T11:11:54.001Z,14.83
2019-05-17T11:14:26.093Z,15.01
2019-05-17T11:16:58.299Z,15.06
2019-05-17T11:19:29.872Z,14.94
2019-05-17T11:22:04.442Z,14.73
2019-05-17T11:24:35.736Z,14.50
2019-05-17T11:27:08.760Z,14.24
2019-05-17T11:29:40.666Z,14.19
2019-05-17T11:32:17.411Z,14.24
2019-05-17T11:34:50.895Z,14.26
2019-05-17T11:37:24.190Z,14.19
2019-05-17T11:39:55.543Z,14.26
2019-05-17T11:42:29.931Z,14.29
2019-05-17T11:45:01.635Z,14.43
2019-05-17T11:47:36.817Z,14.40
2019-05-17T11:50:09.227Z,14.50
2019-05-17T11:52:43.573Z,14.58
2019-05-17T11:55:15.364Z,14.54
2019-05-17T11:57:46.860Z,14.43
2019-05-17T12:00:20.178Z,14.41
2019-05-17T12:02:51.458Z,14.34
2019-05-17T12:05:26.437Z,14.13
2019-05-17T12:07:58.756Z,14.09
2019-05-17T12:10:31.314Z,14.00
2019-05-17T12:13:02.794Z,14.16
2019-05-17T12:15:44.570Z,14.17
2019-05-17T12:18:08.145Z,14.26
2019-05-17T12:20:39.400Z,14.40
2019-05-17T12:23:12.799Z,14.34
2019-05-17T12:25:44.490Z,14.28
2019-05-17T12:28:16.279Z,14.38
2019-05-17T12:30:47.573Z,14.37
2019-05-17T12:33:19.951Z,14.42
2019-05-17T12:35:52.220Z,14.53
2019-05-17T12:38:25.533Z,14.50
2019-05-17T12:41:00.009Z,14.45
2019-05-17T12:43:53.793Z,14.43
2019-05-17T12:46:29.845Z,14.57
2019-05-17T12:49:06.116Z,14.60
2019-05-17T12:51:38.717Z,14.82
2019-05-17T12:54:10.845Z,15.17
2019-05-17T12:56:45.786Z,15.37
2019-05-17T12:59:25.895Z,15.41
2019-05-17T13:02:02.577Z,15.34
2019-05-17T13:04:35.189Z,15.55
2019-05-17T13:07:06.743Z,15.69
2019-05-17T13:09:40.056Z,15.66
2019-05-17T13:12:11.473Z,15.33
2019-05-17T13:14:43.065Z,15.63
2019-05-17T13:17:14.928Z,15.33
2019-05-17T13:19:46.541Z,15.22
2019-05-17T13:22:20.427Z,15.30
2019-05-17T13:24:57.046Z,15.48
2019-05-17T13:27:38.548Z,15.55
2019-05-17T13:30:11.436Z,15.50
2019-05-17T13:32:42.913Z,15.43
2019-05-17T13:35:18.966Z,15.37
2019-05-17T13:37:52.750Z,15.46
2019-05-17T13:40:24.310Z,15.41
2019-05-17T13:43:01.575Z,15.32
2019-05-17T13:45:33.461Z,15.22
2019-05-17T13:48:05.296Z,15.27
2019-05-17T13:50:39.904Z,15.29
2019-05-17T13:53:12.100Z,15.27
2019-05-17T13:55:47.915Z,15.22
2019-05-17T13:58:20.543Z,15.19
2019-05-17T14:00:52.900Z,15.18
2019-05-17T14:03:30.731Z,15.17
2019-05-17T14:06:02.165Z,15.27
2019-05-17T14:08:35.253Z,15.21
2019-05-17T14:11:06.883Z,15.35
2019-05-17T14:13:40.329Z,15.41
2019-05-17T14:16:12.610Z,15.33
2019-05-17T14:19:04.799Z,15.44
2019-05-17T14:21:49.893Z,15.50
2019-05-17T14:24:36.701Z,15.56
2019-05-17T14:27:37.184Z,15.54
2019-05-17T14:30:08.232Z,15.43
2019-05-17T14:32:41.678Z,15.52
2019-05-17T14:35:13.080Z,15.60
2019-05-17T14:37:44.937Z,15.66
2019-05-17T14:40:20.436Z,15.57
2019-05-17T14:42:54.594Z,15.50
2019-05-17T14:45:26.284Z,15.56
2019-05-17T14:47:57.748Z,15.57
2019-05-17T14:50:29.351Z,15.32
2019-05-17T14:53:01.734Z,15.24
2019-05-17T14:55:33.637Z,15.42
2019-05-17T14:58:05.569Z,15.71
2019-05-17T15:00:40.173Z,15.91
2019-05-17T15:03:11.738Z,15.90
2019-05-17T15:05:43.078Z,15.72
2019-05-17T15:08:14.447Z,15.72
2019-05-17T15:10:46.714Z,15.87
2019-05-17T15:13:18.180Z,15.82
2019-05-17T15:15:51.270Z,15.73
2019-05-17T15:18:22.761Z,15.60
2019-05-17T15:20:54.350Z,15.47
2019-05-17T15:23:28.220Z,15.29
2019-05-17T15:25:59.926Z,15.37
2019-05-17T15:28:32.209Z,15.41
2019-05-17T15:31:04.207Z,15.23
2019-05-17T15:33:35.775Z,15.22
2019-05-17T15:36:15.203Z,15.17
2019-05-17T15:38:50.583Z,15.07
2019-05-17T15:41:22.294Z,14.85
2019-05-17T15:43:55.312Z,14.81
2019-05-17T15:46:27.831Z,14.62
2019-05-17T15:49:07.316Z,14.69
2019-05-17T15:51:41.878Z,14.50
2019-05-17T15:54:17.477Z,14.42
2019-05-17T15:56:53.160Z,14.28
2019-05-17T15:59:28.002Z,14.30
2019-05-17T16:04:55.347Z,14.52
2019-05-17T16:07:34.186Z,14.61
2019-05-17T16:10:18.260Z,14.59
2019-05-17T16:13:02.833Z,14.62
2019-05-17T16:15:38.526Z,14.81
2019-05-17T16:18:11.820Z,14.87
2019-05-17T16:20:49.281Z,15.00
2019-05-17T16:23:28.701Z,15.00
2019-05-17T16:26:03.234Z,14.82
2019-05-17T16:28:47.683Z,14.92
2019-05-17T16:31:23.226Z,15.01
2019-05-17T16:33:54.909Z,14.99
2019-05-17T16:36:27.971Z,15.08
2019-05-17T16:39:04.335Z,15.11
2019-05-17T16:41:38.066Z,15.00
2019-05-17T16:44:14.582Z,14.76
2019-05-17T16:46:45.724Z,14.45
2019-05-17T16:49:17.242Z,14.31
2019-05-17T16:51:48.856Z,14.38
2019-05-17T16:54:24.123Z,14.42
2019-05-17T16:57:00.425Z,14.27
2019-05-17T16:59:31.724Z,14.34
2019-05-17T17:02:03.106Z,14.45
2019-05-17T17:04:34.479Z,14.55
2019-05-17T17:07:05.833Z,14.60
2019-05-17T17:09:37.425Z,14.69
2019-05-17T17:12:08.803Z,14.79
2019-05-17T17:14:40.302Z,14.76
2019-05-17T17:17:12.992Z,14.65
2019-05-17T17:19:44.798Z,14.28
2019-05-17T17:22:16.220Z,14.04
2019-05-17T17:24:48.692Z,13.93
2019-05-17T17:27:20.536Z,13.81
2019-05-17T17:29:52.219Z,13.79
2019-05-17T17:32:26.584Z,13.94
2019-05-17T17:34:58.443Z,13.71
2019-05-17T17:37:29.855Z,13.51
2019-05-17T17:40:00.986Z,13.50
2019-05-17T17:42:32.256Z,13.50
2019-05-17T17:45:04.925Z,13.49
2019-05-17T17:47:36.265Z,13.48
2019-05-17T17:50:08.286Z,13.62
2019-05-17T17:52:39.999Z,13.60
2019-05-17T17:55:54.910Z,13.40
2019-05-17T18:02:33.592Z,13.41
2019-05-17T18:06:00.418Z,13.40
2019-05-17T18:09:06.342Z,13.55
2019-05-17T18:13:34.067Z,13.57
2019-05-17T18:16:30.860Z,13.64
2019-05-17T18:19:40.243Z,13.80
2019-05-17T18:26:10.933Z,13.79
2019-05-17T18:32:16.427Z,13.61
2019-05-17T18:35:37.553Z,13.64
2019-05-17T18:42:12.888Z,13.68
2019-05-17T18:44:27.952Z,13.67
2019-05-17T18:51:18.609Z,13.75
2019-05-17T18:57:24.852Z,13.59
2019-05-17T19:11:01.697Z,13.30
2019-05-17T19:13:47.376Z,13.16
2019-05-17T19:17:34.736Z,13.02
2019-05-17T19:25:05.415Z,12.90
2019-05-17T19:27:16.917Z,13.09
2019-05-17T19:29:48.267Z,13.07
2019-05-17T19:32:19.604Z,13.14
2019-05-17T19:34:50.890Z,13.15
2019-05-17T19:37:22.366Z,13.13
2019-05-17T19:39:54.460Z,13.11
2019-05-17T19:42:26.318Z,13.11
2019-05-17T19:44:59.555Z,13.06
2019-05-17T19:47:30.917Z,13.06
2019-05-17T19:50:03.594Z,12.96
2019-05-17T19:52:36.076Z,13.01
2019-05-17T19:55:08.843Z,13.01
2019-05-17T19:57:40.311Z,13.09
2019-05-17T20:00:13.243Z,12.97
2019-05-17T20:02:44.665Z,12.84
2019-05-17T20:05:16.134Z,12.74
2019-05-17T20:07:48.540Z,12.68
2019-05-17T20:10:22.633Z,12.73
2019-05-17T20:12:54.216Z,12.73
2019-05-17T20:15:34.184Z,12.77
2019-05-17T20:18:01.062Z,12.79
2019-05-17T20:20:32.277Z,12.78
2019-05-17T20:23:04.485Z,12.82
2019-05-17T20:25:37.318Z,12.70
2019-05-17T20:28:09.546Z,12.68
2019-05-17T20:30:40.985Z,12.67
2019-05-17T20:33:12.632Z,12.55
2019-05-17T20:35:44.075Z,12.57
2019-05-17T20:38:15.702Z,12.62
2019-05-17T20:40:50.202Z,12.71
2019-05-17T20:43:25.155Z,12.57
2019-05-17T20:45:56.442Z,12.60
2019-05-17T20:48:28.700Z,12.49
2019-05-17T20:51:00.234Z,12.47
2019-05-17T20:53:31.496Z,12.54
2019-05-17T20:56:02.861Z,12.54
2019-05-17T20:58:34.168Z,12.47
2019-05-17T21:01:05.812Z,12.25
2019-05-17T21:03:37.140Z,12.23
2019-05-17T21:06:09.407Z,12.27
2019-05-17T21:08:46.095Z,12.35
2019-05-17T21:11:15.155Z,12.26
2019-05-17T21:13:46.473Z,12.28
2019-05-17T21:16:18.705Z,12.40
2019-05-17T21:18:53.881Z,12.31
2019-05-17T21:21:25.284Z,12.15
2019-05-17T21:23:57.049Z,12.34
2019-05-17T21:26:28.820Z,12.36
2019-05-17T21:29:00.101Z,12.30
2019-05-17T21:31:31.529Z,12.33
2019-05-17T21:34:03.126Z,12.44
2019-05-17T21:36:34.519Z,12.42
2019-05-17T21:39:07.175Z,12.58
2019-05-17T21:41:38.437Z,12.55
2019-05-17T21:44:11.328Z,12.40
2019-05-17T21:46:42.669Z,12.27
2019-05-17T21:49:13.958Z,12.31
2019-05-17T21:51:45.620Z,12.24
2019-05-17T21:54:16.849Z,12.29
2019-05-17T21:56:48.471Z,12.33
2019-05-17T21:59:20.022Z,12.38
2019-05-17T22:01:51.445Z,12.46
2019-05-17T22:04:26.956Z,12.40
2019-05-17T22:06:58.061Z,12.28
2019-05-17T22:09:29.483Z,12.29
2019-05-17T22:12:04.119Z,12.23
2019-05-17T22:14:35.466Z,12.20
2019-05-17T22:17:06.789Z,12.34
2019-05-17T22:19:37.960Z,12.30
2019-05-17T22:22:09.372Z,12.26
2019-05-17T22:24:41.112Z,12.25
2019-05-17T22:27:12.918Z,12.19
2019-05-17T22:29:44.169Z,12.17
2019-05-17T22:32:15.747Z,12.29
2019-05-17T22:34:48.060Z,12.28
2019-05-17T22:37:19.792Z,12.38
2019-05-17T22:39:51.318Z,12.28
2019-05-17T22:42:22.777Z,12.32
2019-05-17T22:44:53.962Z,12.32
2019-05-17T22:48:02.580Z,12.11
2019-05-17T22:50:34.029Z,12.03
2019-05-17T22:53:05.462Z,11.93
2019-05-17T22:55:36.793Z,11.87
2019-05-17T22:58:08.231Z,11.81
2019-05-17T23:00:39.479Z,11.76
2019-05-17T23:03:12.054Z,11.69
2019-05-17T23:05:43.379Z,11.77
2019-05-17T23:08:24.633Z,11.81
2019-05-17T23:10:55.920Z,11.88
2019-05-17T23:13:27.158Z,11.89
2019-05-17T23:16:02.933Z,12.04
2019-05-17T23:18:34.434Z,11.89
2019-05-17T23:21:08.697Z,11.70
2019-05-17T23:23:40.326Z,11.67
2019-05-17T23:26:11.883Z,11.56
2019-05-17T23:28:43.503Z,11.55
2019-05-17T23:31:15.221Z,11.53
2019-05-17T23:33:46.999Z,11.56
2019-05-17T23:36:18.725Z,11.53
2019-05-17T23:38:50.413Z,11.53
2019-05-17T23:41:21.745Z,11.53
2019-05-17T23:43:53.013Z,11.57
2019-05-17T23:46:24.233Z,11.53
2019-05-17T23:48:55.579Z,11.61
2019-05-17T23:51:27.229Z,11.64
2019-05-17T23:53:58.717Z,11.60
2019-05-17T23:56:30.474Z,11.60
2019-05-17T23:59:02.225Z,11.59
